Time;durP1;ratioP1;P1;durP2;ratioP2;P2;SDS_P1;SDS_P2;PMS_P1;PMS_P2;Temp;Humidity;BMP_temperature;BMP_pressure;BME280_temperature;BME280_humidity;BME280_pressure;Samples;Min_cycle;Max_cycle;Signal;HPM_P1;HPM_P2
2022/05/01 00:00:08;;;;;;;11.73;5.65;;;;;;;10.06;81.45;150181.94;1761044;81;21211;-59
2022/05/01 00:02:36;;;;;;;10.45;5.92;;;;;;;10.03;81.54;150176.75;1760981;81;20944;-59
2022/05/01 00:05:05;;;;;;;10.35;6.92;;;;;;;10.02;81.59;150174.17;1760600;80;21038;-58
2022/05/01 00:07:33;;;;;;;7.62;5.37;;;;;;;10.01;81.68;150171.58;1761073;81;21563;-61
2022/05/01 00:10:00;;;;;;;8.20;5.70;;;;;;;10.03;81.75;150176.75;1760911;81;21343;-59
2022/05/01 00:12:29;;;;;;;14.65;5.42;;;;;;;10.03;81.67;150176.75;1760962;80;21377;-59
2022/05/01 00:14:56;;;;;;;11.33;5.87;;;;;;;10.04;81.70;150178.08;1760877;81;21051;-59
2022/05/01 00:17:25;;;;;;;8.53;5.10;;;;;;;10.03;81.81;150176.75;1760805;81;21480;-58
2022/05/01 00:19:52;;;;;;;10.15;5.75;;;;;;;10.02;81.90;150174.17;1761194;81;21268;-59
2022/05/01 00:22:19;;;;;;;9.15;5.22;;;;;;;10.01;81.98;150171.58;1760785;81;21522;-59
2022/05/01 00:24:48;;;;;;;11.48;5.87;;;;;;;10.01;81.96;150170.31;1761236;81;20988;-59
2022/05/01 00:27:15;;;;;;;9.38;5.87;;;;;;;10.02;81.97;150172.89;1760705;81;21028;-59
2022/05/01 00:29:42;;;;;;;8.65;5.33;;;;;;;10.01;82.08;150171.58;1761252;81;21015;-58
2022/05/01 00:32:09;;;;;;;10.90;5.75;;;;;;;10.02;82.06;150172.89;1760729;81;21082;-59
2022/05/01 00:37:22;;;;;;;9.95;5.25;;;;;;;10.01;82.23;150171.58;1760878;81;21201;-58
2022/05/01 00:39:49;;;;;;;7.37;5.05;;;;;;;9.98;82.21;150163.80;1761199;81;20944;-59
2022/05/01 00:42:17;;;;;;;11.05;5.00;;;;;;;9.97;82.32;150161.20;1760765;81;21066;-59
2022/05/01 00:44:44;;;;;;;8.93;4.50;;;;;;;9.97;82.30;150161.20;1761075;81;20916;-59
2022/05/01 00:47:12;;;;;;;7.20;4.62;;;;;;;10.00;82.15;150168.98;1760608;81;21051;-59
2022/05/01 00:49:40;;;;;;;12.50;5.15;;;;;;;10.04;81.98;150178.08;1761122;81;21231;-58
2022/05/01 00:52:09;;;;;;;11.73;4.97;;;;;;;10.07;81.92;150184.59;1760611;81;21416;-60
2022/05/01 00:54:42;;;;;;;10.60;5.53;;;;;;;10.10;81.93;150192.36;1731056;81;21101;-60
2022/05/01 00:57:10;;;;;;;8.18;4.80;;;;;;;10.08;82.01;150187.17;1761131;80;21038;-59
2022/05/01 00:59:39;;;;;;;8.23;4.60;;;;;;;10.06;81.97;150181.94;1761041;81;21075;-59
2022/05/01 01:02:06;;;;;;;8.13;4.78;;;;;;;10.03;82.04;150176.75;1760842;81;21235;-59
2022/05/01 01:04:34;;;;;;;7.20;4.58;;;;;;;10.02;82.13;150172.89;1760707;80;21551;-60
2022/05/01 01:07:02;;;;;;;7.40;4.22;;;;;;;10.00;82.19;150168.98;1760814;81;21481;-60
2022/05/01 01:09:30;;;;;;;6.12;4.12;;;;;;;9.99;82.22;150166.39;1750853;81;21070;-60
2022/05/01 01:14:45;;;;;;;6.95;4.10;;;;;;;9.98;82.32;150163.80;1750189;82;21051;-59
2022/05/01 01:17:12;;;;;;;8.23;4.10;;;;;;;10.01;82.26;150171.58;1749896;81;21047;-59
2022/05/01 01:19:39;;;;;;;6.17;3.95;;;;;;;10.03;82.17;150176.75;1750471;81;20953;-59
2022/05/01 01:22:08;;;;;;;5.35;3.95;;;;;;;10.07;81.97;150185.86;1729029;81;21051;-59
2022/05/01 01:24:40;;;;;;;9.58;4.10;;;;;;;10.10;81.66;150193.63;1750181;80;20975;-60
2022/05/01 01:27:08;;;;;;;7.25;3.98;;;;;;;10.14;81.33;150202.73;1750263;80;21832;-59
2022/05/01 01:32:20;;;;;;;6.05;4.12;;;;;;;10.22;80.89;150223.47;1750220;81;21146;-60
2022/05/01 01:34:49;;;;;;;9.05;4.05;;;;;;;10.25;81.05;150229.97;1750448;81;20961;-60
2022/05/01 01:37:16;;;;;;;7.25;4.30;;;;;;;10.23;81.46;150226.06;1750268;80;21090;-61
2022/05/01 01:39:43;;;;;;;6.72;4.08;;;;;;;10.22;81.66;150223.47;1750381;82;21914;-60
2022/05/01 01:42:10;;;;;;;6.47;3.77;;;;;;;10.20;81.81;150218.28;1750135;81;21015;-60
2022/05/01 01:44:38;;;;;;;6.78;4.28;;;;;;;10.18;81.63;150213.09;1750361;81;20983;-60
2022/05/01 01:47:06;;;;;;;8.68;4.05;;;;;;;10.20;81.47;150218.28;1749832;80;21036;-61
2022/05/01 01:49:33;;;;;;;7.80;4.00;;;;;;;10.22;81.15;150223.47;1750416;82;21018;-61
2022/05/01 01:52:01;;;;;;;12.15;4.00;;;;;;;10.25;81.08;150231.25;1750049;82;21609;-61
2022/05/01 01:54:28;;;;;;;6.87;4.00;;;;;;;10.27;81.01;150235.16;1749884;82;21083;-61
2022/05/01 01:56:55;;;;;;;6.70;4.22;;;;;;;10.28;81.04;150239.08;1750219;82;20952;-61
2022/05/01 01:59:23;;;;;;;6.83;4.08;;;;;;;10.29;81.10;150241.66;1749931;82;21023;-61
2022/05/01 02:01:50;;;;;;;6.28;4.03;;;;;;;10.29;80.99;150241.66;1750377;80;20928;-61
2022/05/01 02:04:17;;;;;;;5.67;3.80;;;;;;;10.30;80.87;150242.94;1749995;82;21278;-61
2022/05/01 02:06:45;;;;;;;6.70;4.25;;;;;;;10.31;80.82;150246.84;1750281;82;21429;-59
2022/05/01 02:09:13;;;;;;;9.05;4.70;;;;;;;10.34;80.70;150252.03;1756012;81;21078;-60
2022/05/01 02:11:41;;;;;;;6.55;3.92;;;;;;;10.35;80.64;150255.91;1761074;81;21083;-60
2022/05/01 02:14:10;;;;;;;7.95;4.33;;;;;;;10.36;80.44;150258.50;1760852;80;21043;-60
2022/05/01 02:16:37;;;;;;;9.38;4.17;;;;;;;10.38;80.33;150262.41;1760897;81;21234;-59
2022/05/01 02:19:04;;;;;;;7.47;4.50;;;;;;;10.39;80.12;150265.00;1760787;81;21519;-59
2022/05/01 02:21:34;;;;;;;8.10;4.53;;;;;;;10.42;80.18;150272.83;1761224;81;20979;-59
2022/05/01 02:24:05;;;;;;;9.10;4.40;;;;;;;10.43;80.50;150276.73;1760827;81;21039;-59
2022/05/01 02:26:32;;;;;;;7.35;4.35;;;;;;;10.42;80.74;150272.83;1761128;80;21006;-60
2022/05/01 02:29:02;;;;;;;7.75;4.60;;;;;;;10.38;80.79;150263.69;1761100;81;20989;-60
2022/05/01 02:31:31;;;;;;;6.95;4.30;;;;;;;10.34;81.02;150253.31;1760936;81;21043;-60
2022/05/01 02:33:58;;;;;;;7.42;4.67;;;;;;;10.29;81.28;150240.34;1761327;81;20920;-60
2022/05/01 02:36:25;;;;;;;7.10;4.42;;;;;;;10.23;81.55;150226.06;1760623;80;21381;-60
2022/05/01 02:38:52;;;;;;;7.78;4.85;;;;;;;10.17;81.87;150210.50;1761118;81;20999;-60
2022/05/01 02:41:20;;;;;;;8.08;4.22;;;;;;;10.13;82.21;150200.13;1760511;81;21253;-59
2022/05/01 02:43:48;;;;;;;6.47;4.53;;;;;;;10.08;82.53;150187.17;1761031;81;20845;-60
2022/05/01 02:46:15;;;;;;;7.40;4.40;;;;;;;10.01;82.68;150171.58;1760389;80;21050;-60
2022/05/01 02:48:43;;;;;;;7.55;4.15;;;;;;;9.97;82.98;150161.20;1760845;81;21047;-60
2022/05/01 02:51:10;;;;;;;8.28;4.58;;;;;;;9.93;83.20;150150.84;1760811;80;21026;-60
2022/05/01 02:53:38;;;;;;;13.68;6.53;;;;;;;9.90;83.27;150143.06;1760840;81;21954;-60
2022/05/01 02:56:06;;;;;;;7.40;4.70;;;;;;;9.90;83.41;150143.06;1760557;80;21105;-60
2022/05/01 02:58:33;;;;;;;10.43;4.37;;;;;;;9.90;83.52;150143.06;1760315;80;20951;-60
2022/05/01 03:01:00;;;;;;;8.58;4.30;;;;;;;9.90;83.65;150143.06;1760429;81;21007;-60
2022/05/01 03:03:27;;;;;;;8.28;4.28;;;;;;;9.92;83.77;150146.92;1760512;80;21574;-60
2022/05/01 03:05:55;;;;;;;8.90;4.17;;;;;;;9.93;83.87;150150.84;1760673;80;21083;-60
2022/05/01 03:08:23;;;;;;;7.37;4.28;;;;;;;9.96;83.95;150158.61;1759395;81;22116;-60
2022/05/01 03:10:50;;;;;;;7.72;4.25;;;;;;;9.97;84.19;150161.20;1750348;80;20945;-59
2022/05/01 03:13:18;;;;;;;6.67;4.30;;;;;;;9.98;84.29;150163.80;1749711;81;21296;-59
2022/05/01 03:15:46;;;;;;;4.97;3.87;;;;;;;10.01;84.44;150171.58;1750247;81;21008;-59
2022/05/01 03:23:46;;;;;;;8.85;5.40;;;;;;;10.05;84.63;150180.67;1750760;81;21449;-61
2022/05/01 03:26:16;;;;;;;7.05;4.28;;;;;;;10.09;84.68;150189.77;1749623;81;21051;-60
2022/05/01 03:28:43;;;;;;;7.17;4.12;;;;;;;10.12;84.62;150198.81;1749992;81;21106;-60
2022/05/01 03:31:12;;;;;;;8.78;4.30;;;;;;;10.16;84.69;150207.91;1750268;80;21234;-60
2022/05/01 03:33:42;;;;;;;6.33;3.92;;;;;;;10.18;84.50;150213.09;1750300;81;21132;-60
2022/05/01 03:36:09;;;;;;;8.18;4.50;;;;;;;10.21;84.53;150220.88;1749737;82;21072;-60
2022/05/01 03:38:37;;;;;;;8.33;4.12;;;;;;;10.24;84.59;150228.66;1749878;81;21079;-59
2022/05/01 03:41:05;;;;;;;6.83;4.22;;;;;;;10.26;84.81;150232.56;1749875;81;21425;-58
2022/05/01 03:43:33;;;;;;;6.85;4.35;;;;;;;10.26;85.21;150233.84;1750309;82;21208;-60
2022/05/01 03:46:01;;;;;;;7.97;4.35;;;;;;;10.26;85.21;150233.84;1749879;80;20945;-62
2022/05/01 03:48:28;;;;;;;10.13;4.00;;;;;;;10.26;85.16;150233.84;1750152;82;21111;-58
2022/05/01 03:50:56;;;;;;;6.00;4.10;;;;;;;10.28;85.32;150237.75;1750228;81;20892;-58
2022/05/01 03:53:23;;;;;;;8.55;4.12;;;;;;;10.29;85.23;150241.66;1749895;82;21055;-60
2022/05/01 03:55:51;;;;;;;7.70;4.60;;;;;;;10.32;85.42;150249.44;1750278;81;21128;-59
2022/05/01 03:58:19;;;;;;;7.17;4.37;;;;;;;10.35;85.57;150255.91;1750048;81;21020;-59
2022/05/01 04:00:47;;;;;;;9.10;4.50;;;;;;;10.37;85.76;150261.08;1750156;81;21040;-60
2022/05/01 04:03:15;;;;;;;9.68;4.95;;;;;;;10.38;85.31;150262.41;1750017;80;21028;-60
2022/05/01 04:05:42;;;;;;;6.65;4.58;;;;;;;10.43;85.46;150275.42;1750405;81;21059;-59
2022/05/01 04:08:10;;;;;;;8.78;4.20;;;;;;;10.48;85.62;150287.11;1749732;81;21270;-60
2022/05/01 04:10:38;;;;;;;8.60;5.10;;;;;;;10.51;85.78;150296.20;1759737;81;21106;-59
2022/05/01 04:13:07;;;;;;;10.95;4.20;;;;;;;10.54;85.83;150303.98;1760994;81;21355;-59
2022/05/01 04:15:38;;;;;;;11.57;3.80;;;;;;;10.56;85.99;150307.86;1761335;81;21062;-59
2022/05/01 04:18:06;;;;;;;9.40;4.40;;;;;;;10.59;85.93;150316.95;1760839;81;21047;-59
2022/05/01 04:20:33;;;;;;;8.43;4.47;;;;;;;10.63;85.85;150324.73;1760526;81;21253;-60
2022/05/01 04:23:02;;;;;;;7.03;4.53;;;;;;;10.66;85.83;150332.52;1761440;81;20935;-60
2022/05/01 04:25:32;;;;;;;7.08;4.17;;;;;;;10.68;85.85;150337.70;1760480;80;21110;-60
2022/05/01 04:28:04;;;;;;;8.30;4.70;;;;;;;10.70;85.61;150342.88;1730931;81;21004;-59
2022/05/01 04:30:32;;;;;;;10.45;4.03;;;;;;;10.74;85.71;150353.31;1760988;81;21035;-59
2022/05/01 04:33:01;;;;;;;8.03;4.30;;;;;;;10.78;85.68;150363.69;1761077;81;21478;-60
2022/05/01 04:35:33;;;;;;;5.97;3.75;;;;;;;10.80;85.62;150368.87;1761298;81;20963;-60
2022/05/01 04:38:09;;;;;;;8.00;4.30;;;;;;;10.85;85.66;150381.84;1761028;81;20984;-59
2022/05/01 04:40:48;;;;;;;9.03;4.47;;;;;;;10.92;85.52;150397.41;1760020;80;21031;-60
2022/05/01 04:43:18;;;;;;;9.40;4.15;;;;;;;10.97;85.44;150410.42;1760543;81;21043;-60
2022/05/01 04:45:50;;;;;;;7.30;4.20;;;;;;;11.03;85.34;150425.98;1760997;81;21639;-60
2022/05/01 04:48:19;;;;;;;6.45;4.00;;;;;;;11.09;84.99;150441.55;1760282;80;21058;-60
2022/05/01 04:50:47;;;;;;;5.42;3.80;;;;;;;11.16;84.84;150459.75;1760968;81;21555;-60
2022/05/01 04:53:18;;;;;;;8.55;4.15;;;;;;;11.21;84.40;150471.41;1760994;80;21022;-59
2022/05/01 04:55:47;;;;;;;8.78;4.25;;;;;;;11.27;84.24;150485.69;1760998;80;21623;-59
2022/05/01 04:58:17;;;;;;;14.15;4.55;;;;;;;11.35;83.97;150506.44;1761348;81;21250;-59
2022/05/01 05:00:45;;;;;;;6.20;4.33;;;;;;;11.41;83.79;150522.06;1761002;81;21087;-58
2022/05/01 05:03:12;;;;;;;6.12;4.15;;;;;;;11.48;83.56;150537.63;1760718;81;21193;-58
2022/05/01 05:05:39;;;;;;;10.08;4.15;;;;;;;11.55;83.57;150555.80;1761075;81;21671;-59
2022/05/01 05:10:53;;;;;;;8.00;4.20;;;;;;;11.67;83.34;150586.98;1737508;81;22045;-59
2022/05/01 05:13:24;;;;;;;10.50;4.28;;;;;;;11.76;82.82;150609.06;1732526;82;21067;-58
2022/05/01 05:15:51;;;;;;;7.65;4.50;;;;;;;11.86;82.50;150635.03;1732932;82;20896;-59
2022/05/01 05:18:18;;;;;;;7.22;3.90;;;;;;;12.00;82.04;150670.09;1732570;82;21047;-60
2022/05/01 05:20:45;;;;;;;6.05;3.98;;;;;;;12.13;81.51;150701.34;1732738;82;21079;-59
2022/05/01 05:23:12;;;;;;;7.20;4.05;;;;;;;12.22;80.90;150724.70;1732029;82;21115;-60
2022/05/01 05:25:40;;;;;;;5.90;3.83;;;;;;;12.35;80.38;150755.91;1732529;82;21130;-59
2022/05/01 05:28:08;;;;;;;6.75;4.00;;;;;;;12.47;79.88;150787.06;1732718;82;21151;-59
2022/05/01 05:30:35;;;;;;;7.20;3.83;;;;;;;12.56;79.31;150810.48;1732419;82;21107;-59
2022/05/01 05:33:05;;;;;;;7.72;4.20;;;;;;;12.61;78.08;150823.47;1732699;81;21052;-60
2022/05/01 05:35:33;;;;;;;5.85;3.72;;;;;;;12.63;77.32;150827.39;1731982;82;21333;-59
2022/05/01 05:38:00;;;;;;;7.83;4.42;;;;;;;12.65;77.09;150831.25;1732309;82;20888;-59
2022/05/01 05:40:27;;;;;;;5.47;4.12;;;;;;;12.67;76.83;150836.45;1731942;82;22251;-57
2022/05/01 05:42:55;;;;;;;8.40;4.00;;;;;;;12.70;76.63;150845.56;1732414;82;21003;-61
2022/05/01 05:45:22;;;;;;;8.90;3.85;;;;;;;12.71;76.81;150846.84;1731815;82;21110;-59
2022/05/01 05:47:49;;;;;;;12.78;4.40;;;;;;;12.75;76.78;150857.28;1732345;82;21239;-59
2022/05/01 05:50:17;;;;;;;12.20;5.15;;;;;;;12.78;76.65;150865.06;1731516;82;21454;-60
2022/05/01 05:52:44;;;;;;;7.87;4.47;;;;;;;12.80;76.72;150868.94;1732744;82;21291;-60
2022/05/01 05:55:13;;;;;;;6.60;3.62;;;;;;;12.87;76.81;150887.17;1731503;81;21011;-61
2022/05/01 05:57:40;;;;;;;6.83;4.08;;;;;;;12.98;76.55;150914.47;1731943;82;21126;-59
2022/05/01 06:00:09;;;;;;;7.92;3.70;;;;;;;13.04;76.15;150930.05;1732126;82;21395;-58
2022/05/01 06:02:42;;;;;;;11.35;3.75;;;;;;;13.09;75.60;150943.05;1733280;82;21106;-60
2022/05/01 06:05:12;;;;;;;5.92;3.65;;;;;;;13.17;75.09;150963.88;1732025;82;21062;-59
2022/05/01 06:07:40;;;;;;;6.70;3.75;;;;;;;13.24;74.90;150980.73;1732448;82;21391;-60
2022/05/01 06:10:09;;;;;;;7.22;3.58;;;;;;;13.30;74.11;150995.05;1732307;80;21062;-59
2022/05/01 06:12:43;;;;;;;7.10;4.10;;;;;;;13.42;73.94;151026.28;1732450;82;21223;-59
2022/05/01 06:15:12;;;;;;;6.15;3.72;;;;;;;13.56;73.43;151060.11;1731875;82;21591;-58
2022/05/01 06:17:39;;;;;;;6.35;3.77;;;;;;;13.66;72.64;151086.14;1732449;82;21046;-58
2022/05/01 06:20:08;;;;;;;7.53;3.80;;;;;;;13.73;72.52;151104.34;1731869;82;21450;-59
2022/05/01 06:22:36;;;;;;;8.28;4.08;;;;;;;13.83;72.33;151127.77;1732132;82;21042;-58
2022/05/01 06:25:05;;;;;;;6.08;3.77;;;;;;;13.96;71.98;151161.56;1731808;82;21975;-60
2022/05/01 06:27:32;;;;;;;9.28;3.60;;;;;;;14.07;71.50;151187.61;1732147;82;21055;-60
2022/05/01 06:30:00;;;;;;;5.03;3.75;;;;;;;14.21;71.19;151224.00;1732623;82;20940;-60
2022/05/01 06:32:27;;;;;;;7.25;4.20;;;;;;;14.38;70.44;151265.66;1732355;82;21073;-58
2022/05/01 06:34:54;;;;;;;6.17;4.10;;;;;;;14.49;69.79;151294.30;1733009;82;20979;-59
2022/05/01 06:37:21;;;;;;;4.45;3.58;;;;;;;14.53;69.50;151304.70;1732415;82;21242;-59
2022/05/01 06:39:49;;;;;;;7.67;4.12;;;;;;;14.60;69.56;151322.91;1732804;82;21015;-59
2022/05/01 06:42:16;;;;;;;7.08;3.50;;;;;;;14.71;69.00;151349.00;1712031;82;21075;-60
2022/05/01 06:44:44;;;;;;;6.03;3.67;;;;;;;14.85;68.82;151385.42;1732815;82;20992;-58
2022/05/01 06:47:13;;;;;;;4.35;3.45;;;;;;;15.03;68.37;151429.69;1732654;82;21090;-59
2022/05/01 06:49:40;;;;;;;8.13;3.90;;;;;;;15.22;67.73;151476.56;1732606;82;21228;-60
2022/05/01 06:52:08;;;;;;;5.80;4.12;;;;;;;15.40;66.82;151523.44;1732940;82;20952;-59
2022/05/01 06:54:35;;;;;;;4.95;3.50;;;;;;;15.57;65.96;151565.08;1732842;82;21110;-59
2022/05/01 06:57:02;;;;;;;7.40;3.55;;;;;;;15.70;65.22;151598.95;1733254;82;21000;-59
2022/05/01 06:59:29;;;;;;;6.33;4.00;;;;;;;15.85;64.54;151635.44;1732773;82;20971;-59
2022/05/01 07:01:58;;;;;;;8.20;3.27;;;;;;;15.96;63.77;151662.84;1732983;82;21959;-59
2022/05/01 07:04:25;;;;;;;7.20;3.40;;;;;;;16.03;62.97;151682.39;1732317;82;21106;-59
2022/05/01 07:06:52;;;;;;;7.10;3.67;;;;;;;16.10;62.30;151698.02;1732766;82;21027;-59
2022/05/01 07:09:21;;;;;;;6.45;3.35;;;;;;;16.15;61.86;151712.34;1732273;82;21450;-59
2022/05/01 07:11:48;;;;;;;4.15;2.62;;;;;;;16.22;61.22;151729.25;1732717;80;21442;-59
2022/05/01 07:14:15;;;;;;;4.20;3.02;;;;;;;16.23;60.04;151731.84;1732868;81;21235;-58
2022/05/01 07:16:43;;;;;;;4.60;2.60;;;;;;;16.22;58.82;151729.25;1732481;82;21445;-59
2022/05/01 07:19:10;;;;;;;4.10;2.70;;;;;;;16.20;57.74;151724.03;1732470;82;20916;-59
2022/05/01 07:21:37;;;;;;;3.95;2.70;;;;;;;16.14;56.96;151708.42;1732487;81;21368;-59
2022/05/01 07:24:06;;;;;;;3.47;2.60;;;;;;;16.06;56.66;151688.88;1732879;82;21419;-60
2022/05/01 07:26:33;;;;;;;6.00;2.58;;;;;;;15.99;56.66;151671.92;1732695;82;21892;-60
2022/05/01 07:29:02;;;;;;;5.15;3.10;;;;;;;15.98;56.34;151669.33;1732801;82;20952;-60
2022/05/01 07:31:30;;;;;;;4.53;2.90;;;;;;;16.00;56.39;151674.53;1733006;82;21086;-61
2022/05/01 07:33:57;;;;;;;4.10;2.85;;;;;;;15.99;56.99;151671.92;1732968;82;21043;-60
2022/05/01 07:36:24;;;;;;;7.10;3.10;;;;;;;16.04;57.32;151685.00;1732603;81;21023;-60
2022/05/01 07:38:51;;;;;;;5.45;2.83;;;;;;;16.14;57.21;151709.75;1732938;81;21238;-60
2022/05/01 07:41:18;;;;;;;6.15;3.72;;;;;;;16.26;56.81;151739.70;1732443;82;21202;-60
2022/05/01 07:43:46;;;;;;;5.12;3.00;;;;;;;16.41;55.89;151776.16;1732809;82;21019;-61
2022/05/01 07:46:13;;;;;;;7.10;3.00;;;;;;;16.49;55.84;151797.03;1733007;82;20975;-60
2022/05/01 07:48:41;;;;;;;8.70;3.67;;;;;;;16.64;55.88;151833.50;1732840;81;21031;-60
2022/05/01 07:51:08;;;;;;;5.25;3.58;;;;;;;16.73;54.45;151856.98;1732776;82;21396;-60
2022/05/01 07:53:35;;;;;;;6.83;3.25;;;;;;;16.82;52.99;151879.14;1732643;82;21009;-60
2022/05/01 07:56:02;;;;;;;4.75;3.25;;;;;;;16.93;51.95;151906.52;1733075;82;21067;-60
2022/05/01 07:58:29;;;;;;;6.85;3.17;;;;;;;17.05;52.35;151937.81;1732607;82;21611;-60
2022/05/01 08:00:59;;;;;;;8.53;3.33;;;;;;;17.14;51.71;151959.98;1733149;82;20996;-60
2022/05/01 08:06:12;;;;;;;5.03;3.08;;;;;;;17.17;50.49;151967.80;1732651;82;21624;-60
2022/05/01 08:08:41;;;;;;;3.90;2.77;;;;;;;17.25;50.88;151987.36;1732654;82;21357;-61
2022/05/01 08:11:08;;;;;;;6.85;3.00;;;;;;;17.36;50.45;152016.06;1741781;80;21447;-62
2022/05/01 08:13:37;;;;;;;5.60;2.83;;;;;;;17.47;49.48;152043.45;1750147;80;21031;-60
2022/05/01 08:16:04;;;;;;;6.05;3.00;;;;;;;17.45;48.88;152039.52;1750275;82;21330;-60
2022/05/01 08:21:17;;;;;;;7.75;3.83;;;;;;;17.50;49.24;152049.94;1749977;81;21087;-61
2022/05/01 08:23:44;;;;;;;5.12;3.08;;;;;;;17.56;48.83;152065.56;1750127;81;21127;-59
2022/05/01 08:26:13;;;;;;;3.42;2.67;;;;;;;17.63;48.52;152083.86;1749916;81;21534;-59
2022/05/01 08:28:42;;;;;;;5.60;2.67;;;;;;;17.64;48.27;152086.47;1750062;81;21221;-62
2022/05/01 08:31:09;;;;;;;4.55;2.92;;;;;;;17.60;48.07;152077.31;1750124;81;20888;-62
2022/05/01 08:33:37;;;;;;;7.33;3.00;;;;;;;17.59;47.94;152073.44;1750205;82;21032;-61
2022/05/01 08:36:06;;;;;;;4.78;3.10;;;;;;;17.60;48.37;152076.05;1750167;81;20932;-61
2022/05/01 08:38:36;;;;;;;5.65;2.87;;;;;;;17.58;48.64;152072.11;1750494;81;20999;-61
2022/05/01 08:41:03;;;;;;;6.05;3.30;;;;;;;17.59;48.93;152074.72;1750312;82;21235;-61
2022/05/01 08:43:31;;;;;;;4.90;2.90;;;;;;;17.63;48.48;152083.86;1750207;82;21032;-60
2022/05/01 08:46:33;;;;;;;8.48;3.22;;;;;;;17.65;48.30;152087.75;1750548;80;20900;-60
2022/05/01 08:49:05;;;;;;;5.40;2.95;;;;;;;17.68;48.56;152096.89;1750267;82;20966;-58
2022/05/01 08:51:39;;;;;;;6.12;3.22;;;;;;;17.74;48.48;152112.53;1750058;80;21023;-59
2022/05/01 08:54:10;;;;;;;3.53;3.10;;;;;;;17.72;48.18;152106.03;1750664;82;21453;-60
2022/05/01 08:56:41;;;;;;;4.45;2.83;;;;;;;17.65;48.21;152087.75;1750098;80;21477;-59
2022/05/01 08:59:10;;;;;;;5.90;3.12;;;;;;;17.62;48.66;152081.25;1750589;80;21031;-60
2022/05/01 09:01:39;;;;;;;4.45;2.95;;;;;;;17.64;48.06;152086.47;1750017;81;21070;-60
2022/05/01 09:04:06;;;;;;;4.62;2.70;;;;;;;17.64;48.44;152086.47;1750434;81;21537;-61
2022/05/01 09:06:39;;;;;;;4.67;2.75;;;;;;;17.65;48.50;152089.06;1749993;81;21182;-59
2022/05/01 09:09:10;;;;;;;8.68;3.20;;;;;;;17.54;47.72;152060.36;1749500;81;20984;-60
2022/05/01 09:14:25;;;;;;;5.37;2.90;;;;;;;17.22;48.64;151979.55;1761106;80;20148;-61
2022/05/01 09:17:13;;;;;;;6.92;2.95;;;;;;;17.14;48.83;151961.31;1761231;81;21046;-60
2022/05/01 09:19:41;;;;;;;6.75;2.95;;;;;;;17.11;48.94;151953.45;1760859;81;21236;-58
2022/05/01 09:22:08;;;;;;;3.65;2.60;;;;;;;17.13;49.16;151957.38;1760824;81;20936;-59
2022/05/01 09:24:36;;;;;;;5.03;2.65;;;;;;;17.15;49.18;151963.92;1760584;81;21022;-59
2022/05/01 09:27:04;;;;;;;5.40;2.75;;;;;;;17.24;48.98;151986.08;1761215;81;20931;-60
2022/05/01 09:29:32;;;;;;;5.00;2.90;;;;;;;17.33;48.66;152008.20;1761508;80;21026;-59
2022/05/01 09:32:03;;;;;;;4.47;2.75;;;;;;;17.39;47.26;152023.89;1761211;81;21366;-59
2022/05/01 09:34:33;;;;;;;4.20;2.85;;;;;;;17.39;46.94;152023.89;1760617;81;21068;-61
2022/05/01 09:37:02;;;;;;;3.85;2.55;;;;;;;17.39;46.46;152023.89;1761272;81;20920;-60
2022/05/01 09:39:32;;;;;;;6.70;2.50;;;;;;;17.40;46.39;152026.48;1760979;81;21082;-59
2022/05/01 09:42:17;;;;;;;3.80;2.42;;;;;;;17.41;46.87;152029.09;1761058;81;20884;-60
2022/05/01 09:44:44;;;;;;;6.78;2.37;;;;;;;17.45;46.09;152038.19;1761350;81;21222;-61
2022/05/01 09:47:12;;;;;;;3.37;2.37;;;;;;;17.46;44.54;152042.12;1760916;81;21382;-60
2022/05/01 09:49:49;;;;;;;3.42;2.27;;;;;;;17.45;44.10;152038.19;1731249;81;21038;-60
2022/05/01 09:52:16;;;;;;;2.90;2.20;;;;;;;17.46;43.53;152040.80;1760601;81;20967;-60
2022/05/01 09:55:02;;;;;;;5.12;2.00;;;;;;;17.49;42.91;152047.33;1760886;81;21043;-60
2022/05/01 09:57:29;;;;;;;3.92;2.33;;;;;;;17.53;42.98;152057.75;1760621;81;21145;-59
2022/05/01 09:59:56;;;;;;;2.98;2.20;;;;;;;17.56;42.46;152065.56;1761326;81;21007;-59
2022/05/01 10:02:30;;;;;;;4.95;2.50;;;;;;;17.59;42.77;152074.72;1760680;81;21053;-60
2022/05/01 10:05:03;;;;;;;3.95;2.27;;;;;;;17.59;42.06;152073.44;1761089;81;21004;-60
2022/05/01 10:07:37;;;;;;;3.50;2.00;;;;;;;17.60;41.83;152076.05;1760578;81;21070;-61
2022/05/01 10:10:08;;;;;;;3.12;2.37;;;;;;;17.62;41.65;152081.25;1760417;81;21234;-60
2022/05/01 10:12:45;;;;;;;4.50;2.33;;;;;;;17.61;42.95;152079.94;1759389;81;21039;-61
2022/05/01 10:15:12;;;;;;;4.47;2.65;;;;;;;17.61;42.77;152078.66;1760218;81;21656;-62
2022/05/01 10:17:40;;;;;;;4.05;2.33;;;;;;;17.56;43.62;152065.56;1731288;81;21082;-61
2022/05/01 10:20:08;;;;;;;3.65;2.27;;;;;;;17.52;44.13;152055.16;1760889;81;20932;-61
2022/05/01 10:22:36;;;;;;;5.25;2.40;;;;;;;17.52;44.52;152055.16;1761090;81;21132;-61
2022/05/01 10:25:06;;;;;;;5.12;2.35;;;;;;;17.54;44.38;152060.36;1731248;81;21000;-60
2022/05/01 10:27:53;;;;;;;6.40;2.62;;;;;;;17.54;44.38;152060.36;1760874;81;21113;-59
2022/05/01 10:33:25;;;;;;;;;;;;;;;17.62;44.48;152081.25;1762953;81;21485;-61
2022/05/01 10:36:15;;;;;;;3.80;3.10;;;;;;;17.61;47.32;152078.66;1760425;80;21299;-62
2022/05/01 10:39:09;;;;;;;6.58;3.05;;;;;;;17.59;47.19;152073.44;1760455;80;21047;-61
2022/05/01 10:41:43;;;;;;;5.60;2.90;;;;;;;17.57;47.32;152068.19;1760713;81;21476;-60
2022/05/01 10:44:33;;;;;;;4.03;2.30;;;;;;;17.53;47.44;152057.75;1761275;81;21059;-60
2022/05/01 10:47:16;;;;;;;4.53;2.92;;;;;;;17.52;46.08;152055.16;1761292;80;21342;-60
2022/05/01 10:49:44;;;;;;;8.78;2.62;;;;;;;17.51;47.11;152052.55;1761290;81;21194;-60
2022/05/01 10:52:22;;;;;;;4.00;2.25;;;;;;;17.49;47.45;152047.33;1760820;81;21461;-59
2022/05/01 10:55:04;;;;;;;4.50;2.25;;;;;;;17.46;47.01;152040.80;1760593;80;21031;-60
2022/05/01 10:57:30;;;;;;;4.22;2.40;;;;;;;17.44;45.39;152036.91;1761042;81;21070;-61
2022/05/01 11:00:12;;;;;;;3.50;2.12;;;;;;;17.41;45.17;152029.09;1761097;81;21035;-60
2022/05/01 11:02:45;;;;;;;3.95;3.10;;;;;;;17.39;44.43;152023.89;1760721;81;21103;-60
2022/05/01 11:05:20;;;;;;;4.62;2.40;;;;;;;17.37;45.60;152018.67;1760798;81;21020;-60
2022/05/01 11:07:47;;;;;;;4.67;2.70;;;;;;;17.41;46.46;152029.09;1738657;80;21114;-60
2022/05/01 11:10:14;;;;;;;4.95;2.50;;;;;;;17.48;46.14;152046.05;1729646;81;20992;-61
2022/05/01 11:12:43;;;;;;;8.55;2.70;;;;;;;17.54;45.58;152060.36;1760429;81;21136;-62
2022/05/01 11:15:11;;;;;;;6.10;3.08;;;;;;;17.58;45.24;152070.83;1731184;81;21241;-61
2022/05/01 11:17:44;;;;;;;6.83;3.17;;;;;;;17.64;46.74;152085.14;1731037;81;21242;-60
2022/05/01 11:20:23;;;;;;;4.83;3.35;;;;;;;17.75;47.29;152115.13;1760196;81;21489;-60
2022/05/01 11:22:51;;;;;;;6.50;3.15;;;;;;;17.86;47.27;152141.25;1761078;80;20995;-60
2022/05/01 11:25:40;;;;;;;5.08;2.62;;;;;;;17.96;46.53;152167.31;1761117;80;21006;-60
2022/05/01 11:28:07;;;;;;;3.58;2.77;;;;;;;18.07;45.95;152194.75;1761338;81;21869;-59
2022/05/01 11:30:39;;;;;;;5.87;2.98;;;;;;;18.21;45.35;152229.97;1760886;81;21101;-60
2022/05/01 11:33:10;;;;;;;5.78;2.75;;;;;;;18.33;44.59;152261.28;1761454;81;20972;-61
2022/05/01 11:36:01;;;;;;;6.15;2.50;;;;;;;18.51;42.47;152305.66;1760994;80;21051;-60
2022/05/01 11:38:46;;;;;;;4.37;2.00;;;;;;;18.63;41.45;152334.34;1761116;80;21043;-59
2022/05/01 11:41:15;;;;;;;2.67;2.02;;;;;;;18.78;40.35;152373.50;1761114;81;21453;-60
2022/05/01 11:43:43;;;;;;;4.30;1.90;;;;;;;18.90;39.71;152404.84;1760857;80;21283;-60
2022/05/01 11:46:20;;;;;;;5.05;2.12;;;;;;;19.01;38.87;152430.98;1761009;81;20923;-60
2022/05/01 11:48:47;;;;;;;5.15;2.17;;;;;;;19.07;38.39;152445.34;1761162;81;21368;-59
2022/05/01 11:51:14;;;;;;;5.15;2.83;;;;;;;19.06;37.91;152444.02;1760869;80;21106;-59
2022/05/01 11:53:41;;;;;;;5.45;2.25;;;;;;;19.04;37.97;152438.81;1761056;80;21760;-61
2022/05/01 12:04:34;;;;;;;3.83;2.35;;;;;;;19.00;36.85;152428.38;1760783;81;22034;-60
2022/05/01 12:07:12;;;;;;;6.25;2.47;;;;;;;18.90;38.02;152404.84;1761275;81;21238;-60
2022/05/01 12:09:40;;;;;;;4.33;2.10;;;;;;;18.84;38.67;152389.16;1761204;80;21050;-61